Time;durP1;ratioP1;P1;durP2;ratioP2;P2;SDS_P1;SDS_P2;PMS_P1;PMS_P2;Temp;Humidity;BMP_temperature;BMP_pressure;BME280_temperature;BME280_humidity;BME280_pressure;Samples;Min_cycle;Max_cycle;Signal;HPM_P1;HPM_P2
2023/05/19 00:01:51;;;;;;;5.53;1.85;;;;;;;10.22;85.98;99208.47;4082228;28;20312;-44
2023/05/19 00:03:56;;;;;;;5.47;2.33;;;;;;;10.05;86.07;99211.00;4090467;28;20233;-44
2023/05/19 00:06:00;;;;;;;4.70;2.90;;;;;;;10.10;86.13;99210.28;4094807;28;20298;-44
2023/05/19 00:08:03;;;;;;;7.55;2.17;;;;;;;9.99;86.26;99208.28;4097095;28;20262;-44
2023/05/19 00:10:05;;;;;;;4.43;2.03;;;;;;;10.06;86.37;99206.34;4096918;28;20222;-44
2023/05/19 00:12:09;;;;;;;6.03;2.50;;;;;;;10.03;86.44;99209.50;4078003;29;20625;-44
2023/05/19 00:14:12;;;;;;;4.22;2.25;;;;;;;9.92;86.58;99202.91;4074654;29;20770;-45
2023/05/19 00:16:14;;;;;;;4.97;2.15;;;;;;;10.08;86.83;99207.78;4095277;28;20313;-44
2023/05/19 00:18:16;;;;;;;2.60;2.20;;;;;;;9.98;86.83;99210.19;4077930;28;20659;-44
2023/05/19 00:20:18;;;;;;;3.17;2.28;;;;;;;9.93;86.95;99204.56;4098057;28;20215;-44
2023/05/19 00:22:19;;;;;;;2.90;2.20;;;;;;;9.95;86.85;99202.44;4079845;29;20227;-44
2023/05/19 00:24:21;;;;;;;3.92;1.73;;;;;;;9.89;86.86;99208.00;4098550;28;20203;-44
2023/05/19 00:26:25;;;;;;;3.80;2.05;;;;;;;9.86;86.84;99208.44;4078776;29;20212;-46
2023/05/19 00:28:27;;;;;;;2.42;1.92;;;;;;;9.83;87.30;99207.00;4099415;28;20223;-44
2023/05/19 00:30:29;;;;;;;3.90;2.55;;;;;;;9.85;87.40;99206.78;4091455;28;20699;-44
2023/05/19 00:32:31;;;;;;;6.45;2.08;;;;;;;9.72;87.12;99204.19;4095934;28;20231;-44
2023/05/19 00:34:33;;;;;;;5.25;2.15;;;;;;;9.75;87.74;99201.03;4094248;28;20223;-44
2023/05/19 00:36:35;;;;;;;2.17;1.52;;;;;;;9.60;88.01;99201.41;4083104;29;20667;-44
2023/05/19 00:38:37;;;;;;;3.05;1.70;;;;;;;9.61;88.33;99200.31;4095401;28;20221;-44
2023/05/19 00:40:39;;;;;;;7.65;1.70;;;;;;;9.56;88.55;99191.16;4099121;28;20713;-46
2023/05/19 00:42:41;;;;;;;6.68;2.25;;;;;;;9.51;88.75;99200.03;4078457;29;20725;-44
2023/05/19 00:44:43;;;;;;;2.55;1.70;;;;;;;9.58;88.43;99198.06;4095365;28;20229;-45
2023/05/19 00:46:44;;;;;;;5.15;2.45;;;;;;;9.55;88.24;99194.94;4094981;28;20219;-44
2023/05/19 00:48:46;;;;;;;2.92;2.15;;;;;;;9.52;88.45;99189.91;4099339;28;20313;-44
2023/05/19 00:50:50;;;;;;;2.88;1.90;;;;;;;9.49;88.10;99179.47;4083111;29;20219;-44
2023/05/19 00:52:51;;;;;;;1.70;1.40;;;;;;;9.51;88.12;99182.78;4092402;28;20606;-44
2023/05/19 00:54:54;;;;;;;3.03;1.75;;;;;;;9.45;88.30;99178.22;4085163;29;20208;-46
2023/05/19 00:56:57;;;;;;;2.08;1.67;;;;;;;9.53;88.81;99176.03;4094834;28;20222;-44
2023/05/19 00:58:59;;;;;;;6.88;2.47;;;;;;;9.50;88.47;99170.19;4103797;28;20214;-46
2023/05/19 01:01:02;;;;;;;2.80;1.75;;;;;;;9.42;88.33;99173.25;4103917;28;20231;-44
2023/05/19 01:03:12;;;;;;;2.38;2.13;;;;;;;9.48;88.63;99183.25;4089044;28;20218;-44
2023/05/19 01:05:14;;;;;;;5.95;1.70;;;;;;;9.34;88.53;99170.81;4095424;28;20238;-44
2023/05/19 01:07:16;;;;;;;4.50;2.35;;;;;;;9.35;88.56;99176.03;4096803;28;20211;-45
2023/05/19 01:09:17;;;;;;;3.88;2.22;;;;;;;9.27;88.68;99167.28;4093990;28;20285;-44
2023/05/19 01:11:20;;;;;;;2.13;1.60;;;;;;;9.28;88.77;99171.72;4097230;28;20666;-43
2023/05/19 01:13:22;;;;;;;3.22;1.73;;;;;;;9.22;89.09;99158.97;4080807;29;20208;-44
2023/05/19 01:15:26;;;;;;;5.78;1.95;;;;;;;9.22;89.44;99161.69;4096120;28;20670;-44
2023/05/19 01:17:59;;;;;;;2.85;1.60;;;;;;;9.09;88.86;99162.63;4101620;28;20633;-44
2023/05/19 01:20:06;;;;;;;3.55;1.63;;;;;;;9.11;89.62;99165.16;4096522;28;20238;-45
2023/05/19 01:22:42;;;;;;;4.25;1.70;;;;;;;9.05;89.52;99155.97;4109900;28;20238;-44
2023/05/19 01:25:16;;;;;;;3.88;2.20;;;;;;;9.01;89.22;99165.66;4095253;28;20234;-45
2023/05/19 01:27:33;;;;;;;2.20;1.70;;;;;;;8.99;89.58;99167.78;4094035;28;20215;-44
2023/05/19 01:29:44;;;;;;;11.55;2.72;;;;;;;8.91;90.31;99169.94;4104133;28;20228;-45
2023/05/19 01:31:49;;;;;;;3.28;1.55;;;;;;;8.95;90.58;99176.66;4096673;28;20240;-44
2023/05/19 01:33:52;;;;;;;3.65;1.40;;;;;;;8.95;90.56;99173.91;4097076;28;20217;-45
2023/05/19 01:35:55;;;;;;;5.30;2.40;;;;;;;8.93;90.32;99178.75;4097016;28;20574;-45
2023/05/19 01:37:58;;;;;;;4.28;1.63;;;;;;;8.88;90.37;99175.88;4095886;28;20232;-44
2023/05/19 01:40:00;;;;;;;1.83;1.50;;;;;;;8.86;90.78;99177.97;4098713;28;20211;-44
2023/05/19 01:42:03;;;;;;;3.63;2.15;;;;;;;8.82;90.28;99187.69;4094455;28;20686;-44
2023/05/19 01:44:05;;;;;;;6.18;2.13;;;;;;;8.83;90.50;99183.88;4092228;28;20211;-44
2023/05/19 01:46:07;;;;;;;3.33;2.13;;;;;;;8.80;90.86;99181.59;4100216;28;20206;-44
2023/05/19 01:48:10;;;;;;;2.28;1.95;;;;;;;8.75;90.55;99181.44;4096503;28;20225;-45
2023/05/19 01:50:12;;;;;;;3.35;1.83;;;;;;;8.78;90.90;99173.66;4091489;28;20227;-44
2023/05/19 01:52:14;;;;;;;5.78;2.00;;;;;;;8.78;90.39;99175.53;4096062;28;20230;-44
2023/05/19 01:54:16;;;;;;;3.35;1.92;;;;;;;8.77;90.07;99173.84;4094950;28;20672;-44
2023/05/19 01:56:27;;;;;;;19.88;3.17;;;;;;;8.83;90.58;99178.44;4080036;29;20216;-44
2023/05/19 01:58:37;;;;;;;4.80;1.80;;;;;;;8.81;90.82;99169.63;4093464;28;20207;-44
2023/05/19 02:00:53;;;;;;;3.55;1.75;;;;;;;8.79;90.87;99177.19;4093667;28;20274;-46
2023/05/19 02:03:23;;;;;;;3.38;2.10;;;;;;;8.72;90.87;99179.13;4096136;28;20270;-44
2023/05/19 02:05:37;;;;;;;2.63;2.00;;;;;;;8.60;91.00;99181.75;4092850;28;20687;-45
2023/05/19 02:08:06;;;;;;;9.05;2.78;;;;;;;8.55;90.81;99186.22;4108409;28;20207;-45
2023/05/19 02:10:22;;;;;;;3.65;1.73;;;;;;;8.55;91.05;99186.22;4096238;28;20687;-44
2023/05/19 02:12:24;;;;;;;1.40;1.27;;;;;;;8.54;91.54;99190.00;4094280;28;20279;-45
2023/05/19 02:14:29;;;;;;;3.22;2.17;;;;;;;8.47;91.46;99178.28;4091369;28;20215;-44
2023/05/19 02:16:32;;;;;;;4.13;2.20;;;;;;;8.45;91.87;99185.84;4096966;28;20216;-45
2023/05/19 02:18:34;;;;;;;3.42;2.00;;;;;;;8.43;91.90;99187.97;4099190;28;20226;-44
2023/05/19 02:20:38;;;;;;;2.50;1.95;;;;;;;8.42;91.99;99180.84;4096044;28;20207;-44
2023/05/19 02:22:40;;;;;;;3.15;2.10;;;;;;;8.44;92.03;99185.03;4095613;28;20222;-44
2023/05/19 02:24:43;;;;;;;3.83;1.75;;;;;;;8.49;91.74;99185.19;4089561;28;20208;-45
2023/05/19 02:26:45;;;;;;;2.88;1.95;;;;;;;8.47;91.40;99183.72;4099742;28;20217;-44
2023/05/19 02:28:47;;;;;;;1.77;1.65;;;;;;;8.42;91.46;99189.03;4100062;28;20208;-44
2023/05/19 02:30:48;;;;;;;2.70;2.13;;;;;;;8.43;92.11;99182.50;4096256;28;20219;-44
2023/05/19 02:32:52;;;;;;;3.72;2.65;;;;;;;8.36;92.17;99181.72;4099265;28;20215;-44
2023/05/19 02:34:55;;;;;;;7.72;1.98;;;;;;;8.32;92.01;99177.75;4091589;28;20254;-46
2023/05/19 02:36:57;;;;;;;2.38;2.17;;;;;;;8.26;92.07;99186.81;4100605;28;20241;-45
2023/05/19 02:39:00;;;;;;;2.35;1.88;;;;;;;8.24;92.33;99178.03;4094811;28;20215;-45
2023/05/19 02:41:02;;;;;;;2.72;1.95;;;;;;;8.19;92.41;99180.53;4096368;28;20705;-45
2023/05/19 02:43:03;;;;;;;3.47;2.25;;;;;;;8.12;93.05;99174.28;4091202;28;20208;-45
2023/05/19 02:45:06;;;;;;;4.10;1.95;;;;;;;8.10;93.12;99176.41;4099790;28;20222;-44
2023/05/19 02:47:08;;;;;;;2.17;1.48;;;;;;;8.11;92.91;99172.63;4100682;28;20211;-44
2023/05/19 02:49:10;;;;;;;3.55;1.60;;;;;;;8.12;93.33;99168.81;4083665;29;20238;-45
2023/05/19 02:51:12;;;;;;;2.72;1.88;;;;;;;8.07;93.15;99172.22;4085528;29;20663;-44
2023/05/19 02:53:13;;;;;;;3.40;2.83;;;;;;;8.08;93.69;99170.34;4080184;29;20209;-44
2023/05/19 02:55:16;;;;;;;3.10;1.95;;;;;;;8.08;93.18;99173.06;4113604;28;20642;-44
2023/05/19 02:57:18;;;;;;;3.60;1.70;;;;;;;8.10;93.35;99168.22;4087450;28;20211;-44
2023/05/19 02:59:19;;;;;;;1.60;1.50;;;;;;;8.07;93.98;99166.75;4106171;28;20266;-46
2023/05/19 03:01:21;;;;;;;3.88;2.22;;;;;;;8.09;93.93;99170.09;4100769;28;20278;-44
2023/05/19 03:03:23;;;;;;;3.58;2.25;;;;;;;8.01;93.74;99164.91;4093252;28;20346;-45
2023/05/19 03:05:25;;;;;;;2.60;1.67;;;;;;;8.03;93.45;99161.97;4097921;28;20212;-45
2023/05/19 03:07:30;;;;;;;6.55;2.22;;;;;;;8.00;93.41;99162.38;4096793;28;20211;-44
2023/05/19 03:09:32;;;;;;;4.35;2.35;;;;;;;8.00;94.01;99162.38;4093004;28;20243;-46
2023/05/19 03:11:34;;;;;;;2.40;1.55;;;;;;;8.00;94.01;99165.13;4085223;29;20235;-46
2023/05/19 03:13:36;;;;;;;4.72;2.45;;;;;;;7.97;94.33;99160.13;4095904;28;20211;-45
2023/05/19 03:15:37;;;;;;;3.30;2.20;;;;;;;7.99;94.23;99163.44;4092918;28;20579;-44
2023/05/19 03:17:39;;;;;;;6.00;2.42;;;;;;;8.03;94.15;99170.97;4098177;28;20215;-44
2023/05/19 03:19:41;;;;;;;2.05;1.90;;;;;;;7.98;93.83;99165.34;4080053;29;20214;-44
2023/05/19 03:21:43;;;;;;;3.53;2.08;;;;;;;7.91;94.21;99177.31;4097654;28;20320;-44
2023/05/19 03:23:45;;;;;;;3.55;2.03;;;;;;;7.84;94.23;99168.34;4097994;28;20211;-45
2023/05/19 03:25:47;;;;;;;4.18;2.05;;;;;;;7.84;94.07;99171.06;4087978;28;20675;-45
2023/05/19 03:27:49;;;;;;;2.55;1.83;;;;;;;7.80;95.11;99175.28;4095872;28;20212;-45
2023/05/19 03:29:52;;;;;;;5.75;1.67;;;;;;;7.88;94.56;99177.78;4095123;28;20231;-45
2023/05/19 03:31:54;;;;;;;2.28;1.60;;;;;;;7.84;95.31;99171.06;4096716;28;20239;-44
2023/05/19 03:33:56;;;;;;;2.33;2.17;;;;;;;7.87;95.12;99176.06;4093983;28;20211;-44
2023/05/19 03:35:58;;;;;;;2.63;2.05;;;;;;;7.84;94.37;99166.47;4099122;28;20274;-44
2023/05/19 03:38:00;;;;;;;4.10;1.65;;;;;;;7.86;94.69;99177.13;4094611;28;20211;-44
2023/05/19 03:40:04;;;;;;;2.03;1.42;;;;;;;7.85;94.39;99173.59;4080376;28;20211;-44
2023/05/19 03:42:06;;;;;;;3.10;2.30;;;;;;;7.85;94.12;99168.16;4096645;28;20235;-44
2023/05/19 03:44:07;;;;;;;4.97;2.30;;;;;;;7.58;95.96;99176.63;4109054;28;20229;-44
2023/05/19 03:46:09;;;;;;;4.53;1.48;;;;;;;7.64;95.55;99170.31;4093214;28;20211;-46
2023/05/19 03:48:11;;;;;;;4.72;2.13;;;;;;;7.65;95.33;99172.00;4098172;28;20219;-44
2023/05/19 03:50:13;;;;;;;3.80;2.13;;;;;;;7.58;94.95;99177.47;4082442;29;20227;-44
2023/05/19 03:52:15;;;;;;;2.75;2.17;;;;;;;7.56;95.04;99182.28;4091267;28;20230;-45
2023/05/19 03:54:17;;;;;;;3.63;2.78;;;;;;;7.55;95.06;99182.50;4077849;29;20212;-44
2023/05/19 03:56:21;;;;;;;2.22;2.03;;;;;;;7.60;95.56;99174.50;4092437;28;20204;-47
2023/05/19 03:58:23;;;;;;;2.47;1.83;;;;;;;7.58;95.88;99179.34;4081538;29;20622;-47
2023/05/19 04:00:25;;;;;;;9.57;2.80;;;;;;;7.59;95.47;99183.75;4098225;28;21281;-45
2023/05/19 04:02:27;;;;;;;2.22;2.03;;;;;;;7.56;95.76;99184.19;4095647;28;20227;-45
2023/05/19 04:04:29;;;;;;;3.78;1.88;;;;;;;7.60;95.62;99191.69;4084098;28;20212;-45
2023/05/19 04:06:31;;;;;;;4.18;2.50;;;;;;;7.57;95.44;99180.41;4100274;28;20215;-44
2023/05/19 04:08:33;;;;;;;3.40;2.28;;;;;;;7.56;95.92;99184.19;4090335;28;20217;-46
2023/05/19 04:10:34;;;;;;;4.35;1.98;;;;;;;7.67;95.20;99186.22;4093184;28;20567;-45
2023/05/19 04:12:44;;;;;;;1.75;1.60;;;;;;;7.68;95.55;99185.19;4081618;29;20235;-46
2023/05/19 04:14:51;;;;;;;2.00;1.80;;;;;;;7.66;95.43;99184.56;4098661;28;20246;-44
2023/05/19 04:16:53;;;;;;;2.88;2.20;;;;;;;7.66;95.61;99184.56;4097513;28;20297;-44
2023/05/19 04:18:55;;;;;;;3.90;1.98;;;;;;;7.64;95.74;99189.38;4078707;29;20216;-46
2023/05/19 04:20:57;;;;;;;4.50;2.10;;;;;;;7.68;95.98;99193.38;4095358;28;20199;-45
2023/05/19 04:22:59;;;;;;;3.83;2.50;;;;;;;7.61;95.56;99195.28;4095419;28;20214;-44
2023/05/19 04:25:02;;;;;;;4.55;2.15;;;;;;;7.61;95.80;99193.38;4089587;28;20701;-44
2023/05/19 04:27:10;;;;;;;2.90;2.45;;;;;;;7.62;96.16;99192.31;4089677;28;20214;-46
2023/05/19 04:29:16;;;;;;;2.03;1.88;;;;;;;7.63;96.47;99196.72;4089468;28;20211;-45
2023/05/19 04:31:20;;;;;;;2.50;2.00;;;;;;;7.57;96.24;99194.84;4098041;28;20281;-44
2023/05/19 04:33:22;;;;;;;4.22;1.88;;;;;;;7.60;96.49;99190.84;4095519;28;20212;-45
2023/05/19 04:35:24;;;;;;;2.15;2.03;;;;;;;7.64;96.42;99197.56;4091731;28;20226;-44
2023/05/19 04:37:26;;;;;;;3.67;2.03;;;;;;;7.67;96.53;99191.66;4079837;29;20570;-45
2023/05/19 04:39:27;;;;;;;2.15;1.95;;;;;;;7.66;97.32;99195.44;4107403;28;20294;-46
2023/05/19 04:41:29;;;;;;;3.78;1.85;;;;;;;7.71;96.68;99191.03;4096677;28;20230;-45
2023/05/19 04:43:31;;;;;;;5.72;3.15;;;;;;;7.73;96.48;99196.25;4078054;29;20224;-45
2023/05/19 04:45:33;;;;;;;3.20;1.75;;;;;;;7.77;96.93;99197.50;4074888;29;20598;-44
2023/05/19 04:47:36;;;;;;;2.30;2.10;;;;;;;7.83;96.74;99197.47;4095787;28;20306;-45
2023/05/19 04:49:38;;;;;;;2.47;2.00;;;;;;;7.82;96.28;99200.44;4097387;28;20709;-45
2023/05/19 04:51:41;;;;;;;6.00;2.00;;;;;;;7.87;96.56;99206.03;4096916;28;20246;-46
2023/05/19 04:53:42;;;;;;;2.53;2.33;;;;;;;7.83;96.12;99202.09;4082829;29;20218;-45
2023/05/19 04:55:44;;;;;;;3.95;2.50;;;;;;;7.94;96.39;99213.16;4094852;28;20211;-44
2023/05/19 04:57:46;;;;;;;2.53;2.25;;;;;;;8.00;96.11;99206.00;4083399;28;20216;-44
2023/05/19 04:59:48;;;;;;;3.70;3.35;;;;;;;7.95;95.99;99211.28;4092377;28;20207;-45
2023/05/19 05:01:54;;;;;;;3.60;3.30;;;;;;;7.96;96.04;99212.94;4096908;28;20231;-45
2023/05/19 05:03:57;;;;;;;3.83;2.83;;;;;;;8.06;95.83;99213.31;4093924;28;20219;-44
2023/05/19 05:06:00;;;;;;;5.63;3.42;;;;;;;8.07;95.75;99204.06;4086364;29;20249;-45
2023/05/19 05:08:02;;;;;;;2.83;2.50;;;;;;;8.13;95.70;99203.19;4078919;29;20216;-44
2023/05/19 05:10:04;;;;;;;4.18;3.28;;;;;;;8.24;95.27;99199.81;4097900;28;20594;-45
2023/05/19 05:12:07;;;;;;;4.22;3.00;;;;;;;8.33;95.28;99198.50;4095058;28;20706;-44
2023/05/19 05:14:09;;;;;;;3.03;2.70;;;;;;;8.42;95.10;99197.22;4087129;28;20685;-44
2023/05/19 05:16:12;;;;;;;3.15;2.70;;;;;;;8.52;94.70;99192.94;4095175;28;20282;-44
2023/05/19 05:18:14;;;;;;;4.88;2.38;;;;;;;8.56;94.03;99196.88;4083668;29;20227;-46
2023/05/19 05:20:18;;;;;;;2.63;1.85;;;;;;;8.46;94.33;99195.69;4093868;28;20206;-44
2023/05/19 05:22:20;;;;;;;9.00;3.20;;;;;;;8.27;95.87;99193.94;4089613;28;20232;-45
2023/05/19 05:24:22;;;;;;;3.92;2.63;;;;;;;8.29;96.25;99195.38;4094501;28;20215;-45
2023/05/19 05:26:29;;;;;;;3.08;1.80;;;;;;;8.44;96.06;99189.63;4096928;28;20330;-44
2023/05/19 05:28:31;;;;;;;3.75;2.22;;;;;;;8.59;94.81;99193.72;4094649;28;20203;-45
2023/05/19 05:30:33;;;;;;;4.95;2.08;;;;;;;8.75;94.47;99181.44;4094836;28;20230;-46
2023/05/19 05:32:35;;;;;;;3.53;2.17;;;;;;;8.58;94.74;99192.06;4091385;28;20231;-45
2023/05/19 05:34:38;;;;;;;4.05;2.28;;;;;;;8.68;94.88;99177.94;4096758;28;20214;-44
2023/05/19 05:36:40;;;;;;;3.30;2.10;;;;;;;8.65;95.32;99181.09;4099352;28;20218;-44
2023/05/19 05:38:42;;;;;;;3.70;2.25;;;;;;;8.82;95.03;99187.69;4099975;28;20215;-45
2023/05/19 05:40:43;;;;;;;6.20;2.38;;;;;;;8.97;95.89;99190.91;4081920;29;20207;-44
2023/05/19 05:42:45;;;;;;;3.35;1.75;;;;;;;9.21;95.10;99187.34;4085302;29;20664;-44
2023/05/19 05:44:47;;;;;;;3.15;1.83;;;;;;;9.42;96.03;99186.91;4095088;28;20231;-44
2023/05/19 05:46:49;;;;;;;8.90;1.85;;;;;;;9.45;94.33;99186.44;4097026;28;20259;-46
2023/05/19 05:48:51;;;;;;;3.45;1.98;;;;;;;9.49;93.03;99174.00;4098222;28;20216;-43
2023/05/19 05:50:55;;;;;;;2.30;1.98;;;;;;;9.80;93.23;99179.28;4100426;28;20222;-44
2023/05/19 05:52:59;;;;;;;3.88;1.80;;;;;;;9.98;92.94;99184.75;4097606;28;20212;-46
2023/05/19 05:55:04;;;;;;;3.83;1.55;;;;;;;10.01;91.80;99178.84;4099986;28;20731;-45
2023/05/19 05:57:06;;;;;;;2.72;1.73;;;;;;;10.15;91.09;99185.84;4096709;28;20207;-46
2023/05/19 05:59:08;;;;;;;6.07;2.30;;;;;;;10.05;90.25;99180.06;4094769;28;20223;-44
2023/05/19 06:01:10;;;;;;;4.32;2.10;;;;;;;10.13;90.38;99187.94;4099575;28;20296;-45
2023/05/19 06:03:13;;;;;;;3.33;2.40;;;;;;;10.35;91.02;99180.91;4099182;28;20611;-45
2023/05/19 06:05:15;;;;;;;4.63;2.25;;;;;;;10.51;89.43;99188.47;4097162;28;20215;-44
2023/05/19 06:07:17;;;;;;;2.63;2.05;;;;;;;10.53;89.14;99189.03;4097141;28;20212;-44
2023/05/19 06:09:19;;;;;;;4.22;2.30;;;;;;;10.69;89.18;99180.19;4113220;28;20207;-45
2023/05/19 06:11:21;;;;;;;3.30;1.88;;;;;;;10.73;88.57;99178.63;4097115;28;20258;-46
2023/05/19 06:13:24;;;;;;;5.78;2.00;;;;;;;10.89;89.39;99176.03;4095098;28;20204;-44
2023/05/19 06:15:26;;;;;;;4.53;1.90;;;;;;;10.74;88.11;99170.19;4098680;28;20242;-44
2023/05/19 06:17:28;;;;;;;4.53;2.28;;;;;;;10.60;89.47;99184.31;4096644;28;20211;-45
2023/05/19 06:19:31;;;;;;;4.00;2.25;;;;;;;10.84;88.71;99176.75;4099412;28;20541;-45
2023/05/19 06:21:33;;;;;;;3.75;1.85;;;;;;;10.99;88.58;99185.38;4087537;28;20220;-45
2023/05/19 06:23:35;;;;;;;4.40;1.88;;;;;;;10.87;87.38;99174.63;4082309;29;20215;-44
2023/05/19 06:25:37;;;;;;;5.00;1.70;;;;;;;10.85;88.11;99172.13;4099944;28;20215;-46
2023/05/19 06:27:39;;;;;;;5.70;1.75;;;;;;;10.89;91.03;99174.16;4099376;28;20985;-45
2023/05/19 06:29:41;;;;;;;8.13;3.80;;;;;;;10.89;87.70;99167.81;4097793;28;20219;-45
2023/05/19 06:31:42;;;;;;;8.27;1.90;;;;;;;11.03;88.28;99170.13;4095448;28;20266;-45
2023/05/19 06:33:44;;;;;;;4.28;1.90;;;;;;;11.00;87.50;99173.34;4079966;29;20631;-45
2023/05/19 06:35:46;;;;;;;3.05;1.50;;;;;;;10.98;87.71;99178.19;4108373;28;20608;-45
2023/05/19 06:37:48;;;;;;;7.15;1.75;;;;;;;10.96;86.36;99174.88;4094987;28;20763;-45
2023/05/19 06:39:52;;;;;;;3.25;1.70;;;;;;;10.94;86.20;99170.69;4083601;28;20299;-47
2023/05/19 06:41:54;;;;;;;4.65;1.70;;;;;;;10.97;86.53;99165.59;4099154;28;20978;-45
2023/05/19 06:43:55;;;;;;;3.28;1.60;;;;;;;11.18;85.95;99172.41;4094712;28;20220;-44
2023/05/19 06:45:57;;;;;;;3.28;2.40;;;;;;;11.32;85.87;99169.16;4107300;28;20213;-44
2023/05/19 06:47:59;;;;;;;4.35;1.85;;;;;;;11.66;86.04;99176.56;4089239;28;20211;-44
2023/05/19 06:50:01;;;;;;;1.80;1.27;;;;;;;11.96;85.09;99181.88;4095043;28;20204;-44
2023/05/19 06:52:03;;;;;;;5.22;1.60;;;;;;;11.79;83.38;99176.31;4094502;28;20231;-44
2023/05/19 06:54:05;;;;;;;1.65;1.48;;;;;;;11.86;81.68;99181.66;4091555;28;20224;-45
2023/05/19 06:56:07;;;;;;;2.97;1.67;;;;;;;11.77;81.60;99175.69;4098179;28;20212;-44
2023/05/19 06:58:09;;;;;;;5.35;1.75;;;;;;;11.86;80.20;99174.28;4086050;28;20219;-46
2023/05/19 07:00:11;;;;;;;2.97;2.47;;;;;;;12.03;81.53;99182.56;4099854;28;20219;-44
2023/05/19 07:02:17;;;;;;;2.80;1.48;;;;;;;12.05;80.24;99174.91;4095266;28;20227;-45
2023/05/19 07:04:19;;;;;;;4.88;2.25;;;;;;;11.99;80.72;99176.75;4095839;28;20279;-44
2023/05/19 07:06:21;;;;;;;3.58;2.05;;;;;;;12.57;81.60;99171.81;4092479;28;20208;-45
2023/05/19 07:08:23;;;;;;;2.80;1.58;;;;;;;12.69;80.68;99178.09;4092716;28;20270;-44
2023/05/19 07:10:25;;;;;;;3.03;1.52;;;;;;;13.20;80.82;99168.81;4096429;28;20242;-44
2023/05/19 07:12:27;;;;;;;5.10;2.08;;;;;;;13.50;77.93;99170.13;4096082;28;20227;-44
2023/05/19 07:14:28;;;;;;;5.55;1.40;;;;;;;13.54;72.83;99164.94;4087295;28;20218;-44
2023/05/19 07:16:30;;;;;;;2.47;1.50;;;;;;;13.72;73.48;99171.00;4096730;28;20240;-44
2023/05/19 07:18:32;;;;;;;6.25;1.67;;;;;;;13.49;69.44;99162.13;4074935;29;20610;-44
2023/05/19 07:20:34;;;;;;;5.35;1.52;;;;;;;13.39;71.08;99161.97;4097103;28;20219;-44
2023/05/19 07:22:38;;;;;;;3.88;1.63;;;;;;;13.70;70.42;99156.66;4092712;28;20254;-45
2023/05/19 07:24:40;;;;;;;4.75;1.55;;;;;;;14.28;71.22;99164.28;4091441;28;20212;-45
2023/05/19 07:26:42;;;;;;;3.53;1.75;;;;;;;14.43;70.66;99158.97;4097318;28;20215;-45
2023/05/19 07:28:43;;;;;;;6.50;2.25;;;;;;;14.54;67.81;99167.06;4096607;28;20222;-44
2023/05/19 07:30:45;;;;;;;2.25;1.60;;;;;;;14.41;66.56;99164.72;4081689;29;20216;-43
2023/05/19 07:32:47;;;;;;;2.45;1.48;;;;;;;14.74;65.32;99161.78;4094286;28;20275;-44
2023/05/19 07:34:49;;;;;;;2.85;1.25;;;;;;;14.43;65.24;99159.78;4081118;29;20279;-44
2023/05/19 07:36:51;;;;;;;3.90;1.52;;;;;;;14.76;66.26;99159.56;4106839;28;20218;-44
2023/05/19 07:38:53;;;;;;;5.07;1.90;;;;;;;15.10;65.52;99149.94;4093850;28;20346;-45
2023/05/19 07:40:54;;;;;;;6.25;1.27;;;;;;;15.56;66.73;99153.91;4096251;28;20208;-44
2023/05/19 07:42:56;;;;;;;2.53;1.30;;;;;;;15.77;64.56;99147.41;4093708;28;20228;-45
2023/05/19 07:44:58;;;;;;;3.08;1.30;;;;;;;15.50;63.91;99155.78;4081280;28;20226;-45
2023/05/19 07:47:00;;;;;;;3.17;1.63;;;;;;;15.51;61.27;99151.94;4095164;28;20238;-45
2023/05/19 07:49:02;;;;;;;5.20;1.33;;;;;;;15.40;61.07;99144.72;4093938;28;20211;-43
2023/05/19 07:51:04;;;;;;;3.58;1.40;;;;;;;15.28;60.31;99152.31;4095787;28;20312;-45
2023/05/19 07:53:06;;;;;;;2.10;1.05;;;;;;;14.81;60.49;99151.38;4111428;28;20214;-44
2023/05/19 07:55:08;;;;;;;3.25;1.63;;;;;;;14.87;61.92;99150.31;4095213;28;20645;-47
2023/05/19 07:57:10;;;;;;;5.25;1.90;;;;;;;15.30;62.12;99144.59;4096679;28;20212;-45
2023/05/19 07:59:12;;;;;;;3.83;1.73;;;;;;;15.45;61.75;99147.50;4092283;28;20215;-45
2023/05/19 08:01:13;;;;;;;4.72;1.40;;;;;;;15.88;63.20;99141.66;4094073;28;20620;-45
2023/05/19 08:03:19;;;;;;;2.75;1.35;;;;;;;15.97;61.80;99151.09;4098879;28;20876;-45
2023/05/19 08:05:22;;;;;;;4.75;1.50;;;;;;;15.57;61.13;99144.53;4098478;28;20294;-45
2023/05/19 08:07:25;;;;;;;3.78;1.52;;;;;;;15.97;61.48;99144.75;4098925;28;20251;-45
2023/05/19 08:09:27;;;;;;;3.65;1.90;;;;;;;16.39;60.67;99138.03;4092473;28;20207;-44
2023/05/19 08:11:29;;;;;;;1.98;1.20;;;;;;;16.96;61.50;99141.44;4093261;28;20237;-45
2023/05/19 08:13:32;;;;;;;4.63;2.00;;;;;;;16.94;57.67;99140.88;4092855;28;20307;-44
2023/05/19 08:15:33;;;;;;;2.08;1.40;;;;;;;16.57;56.46;99140.28;4093728;28;20750;-44
2023/05/19 08:17:35;;;;;;;1.77;1.38;;;;;;;16.76;59.55;99146.94;4094590;28;20748;-44
2023/05/19 08:19:37;;;;;;;7.70;1.60;;;;;;;16.37;57.36;99140.19;4094281;28;20215;-45
2023/05/19 08:21:41;;;;;;;4.43;1.50;;;;;;;16.30;56.89;99139.63;4098141;28;20235;-44
2023/05/19 08:23:42;;;;;;;4.88;1.50;;;;;;;15.85;57.33;99142.22;4093131;28;20211;-45
2023/05/19 08:25:44;;;;;;;3.10;1.45;;;;;;;16.22;57.18;99142.09;4091556;28;20762;-44
2023/05/19 08:27:50;;;;;;;3.50;1.25;;;;;;;15.93;58.19;99133.41;4099026;28;20822;-44
2023/05/19 08:29:51;;;;;;;1.75;1.20;;;;;;;16.26;58.13;99135.75;4100339;28;20596;-45
2023/05/19 08:31:53;;;;;;;3.58;1.20;;;;;;;16.42;59.15;99134.72;4100202;28;20704;-44
2023/05/19 08:33:55;;;;;;;4.28;1.88;;;;;;;16.40;59.91;99138.84;4098905;28;20715;-45
2023/05/19 08:35:58;;;;;;;2.90;1.80;;;;;;;15.89;58.67;99142.50;4091013;28;20271;-43
2023/05/19 08:38:00;;;;;;;7.95;1.50;;;;;;;16.36;58.55;99130.25;4092203;28;20218;-45
2023/05/19 08:40:07;;;;;;;4.32;1.73;;;;;;;16.65;57.47;99131.47;4096394;28;20555;-45
2023/05/19 08:42:10;;;;;;;4.57;1.48;;;;;;;17.48;58.42;99130.91;4107425;28;20226;-43
2023/05/19 08:44:12;;;;;;;3.65;1.48;;;;;;;17.23;55.71;99126.22;4097450;28;20225;-44
2023/05/19 08:46:15;;;;;;;3.30;1.73;;;;;;;17.37;56.05;99129.25;4096891;28;20207;-44
2023/05/19 08:48:18;;;;;;;2.97;1.73;;;;;;;17.46;58.23;99120.13;4099989;28;20216;-44
2023/05/19 08:50:25;;;;;;;4.35;3.20;;;;;;;16.98;55.77;99115.16;4096253;28;20214;-44
2023/05/19 08:53:00;;;;;;;3.45;1.83;;;;;;;17.18;56.39;99126.22;4074370;29;20272;-44
2023/05/19 08:55:12;;;;;;;10.25;1.92;;;;;;;17.19;57.21;99127.06;4100687;28;20811;-45
2023/05/19 08:57:14;;;;;;;4.78;1.63;;;;;;;17.19;57.46;99125.09;4083401;28;20219;-45
2023/05/19 08:59:16;;;;;;;4.45;1.85;;;;;;;16.69;56.09;99131.75;4082183;29;20200;-44
2023/05/19 09:01:19;;;;;;;4.95;2.35;;;;;;;17.32;56.97;99121.78;4105262;28;20622;-44
2023/05/19 09:03:21;;;;;;;2.70;1.75;;;;;;;17.68;55.36;99117.88;4095726;28;20242;-44
2023/05/19 09:05:24;;;;;;;3.92;1.80;;;;;;;17.55;55.42;99110.16;4080945;29;20214;-45
2023/05/19 09:07:28;;;;;;;4.25;1.83;;;;;;;17.99;57.47;99118.59;4095058;28;20211;-44
2023/05/19 09:09:29;;;;;;;5.82;1.77;;;;;;;17.54;55.48;99104.91;4090129;28;20234;-43
2023/05/19 09:11:32;;;;;;;5.57;2.42;;;;;;;17.85;56.13;99106.47;4098579;28;20238;-44
2023/05/19 09:13:34;;;;;;;3.08;1.38;;;;;;;17.92;54.54;99104.22;4091107;28;20210;-44
2023/05/19 09:15:37;;;;;;;4.85;1.90;;;;;;;18.09;55.04;99094.44;4097026;28;20215;-44
2023/05/19 09:17:39;;;;;;;4.38;1.90;;;;;;;17.63;54.99;99092.13;4086332;28;20602;-44
2023/05/19 09:19:43;;;;;;;5.82;1.80;;;;;;;18.34;54.06;99093.53;4096771;28;20332;-45
2023/05/19 09:21:45;;;;;;;4.03;1.85;;;;;;;17.58;54.96;99092.16;4097440;28;20265;-44
2023/05/19 09:23:48;;;;;;;9.77;1.67;;;;;;;17.49;54.85;99083.59;4093849;28;20761;-43
2023/05/19 09:25:52;;;;;;;4.97;2.53;;;;;;;17.49;57.03;99078.06;4090710;28;20219;-44
2023/05/19 09:27:54;;;;;;;4.60;1.92;;;;;;;17.95;54.38;99075.94;4090679;28;20700;-44
2023/05/19 09:29:59;;;;;;;2.65;1.67;;;;;;;17.29;54.75;99068.94;4080491;29;20298;-44
2023/05/19 09:32:03;;;;;;;3.80;1.65;;;;;;;17.69;54.62;99071.63;4082238;29;20722;-44
2023/05/19 09:34:11;;;;;;;4.82;1.98;;;;;;;17.50;55.31;99068.66;4098070;28;20281;-44
2023/05/19 09:36:13;;;;;;;3.90;1.70;;;;;;;18.52;54.58;99065.94;4095450;28;20210;-44
2023/05/19 09:38:18;;;;;;;16.70;1.80;;;;;;;18.94;53.16;99079.22;4080550;29;20212;-44
2023/05/19 09:40:20;;;;;;;4.40;1.35;;;;;;;18.89;50.42;99082.03;4078298;29;20223;-44
2023/05/19 09:42:28;;;;;;;4.25;2.00;;;;;;;19.08;51.17;99085.75;4091278;28;20294;-44
2023/05/19 09:44:31;;;;;;;1.20;0.90;;;;;;;18.21;49.85;99080.25;4081964;28;20215;-45
2023/05/19 09:46:34;;;;;;;4.53;1.38;;;;;;;18.10;50.39;99075.88;4092549;28;20219;-44